createdAt,value
2023-02-26T00:02:46.461Z,-0.37
2023-02-26T00:07:51.022Z,-0.38
2023-02-26T00:12:54.608Z,-0.33
2023-02-26T00:18:04.136Z,-0.09
2023-02-26T00:23:14.258Z,0.14
2023-02-26T00:28:17.828Z,0.15
2023-02-26T00:33:22.374Z,0.08
2023-02-26T00:38:28.586Z,0.24
2023-02-26T00:43:32.142Z,0.49
2023-02-26T00:48:46.846Z,0.61
2023-02-26T00:54:00.859Z,0.67
2023-02-26T00:59:06.214Z,0.74
2023-02-26T01:04:10.626Z,0.67
2023-02-26T01:09:23.963Z,0.54
2023-02-26T01:14:27.788Z,0.59
2023-02-26T01:19:38.358Z,0.50
2023-02-26T01:24:43.919Z,0.43
2023-02-26T01:29:47.219Z,0.43
2023-02-26T01:34:58.939Z,0.48
2023-02-26T01:40:28.728Z,0.54
2023-02-26T01:45:36.382Z,0.56
2023-02-26T01:50:40.421Z,0.47
2023-02-26T01:55:47.204Z,0.35
2023-02-26T02:00:50.225Z,0.35
2023-02-26T02:05:57.784Z,0.25
2023-02-26T02:11:05.039Z,0.15
2023-02-26T02:16:18.159Z,0.11
2023-02-26T02:21:36.430Z,0.02
2023-02-26T02:27:15.144Z,-0.03
2023-02-26T02:32:26.009Z,-0.07
2023-02-26T02:37:35.671Z,-0.12
2023-02-26T02:42:44.410Z,-0.20
2023-02-26T02:47:54.813Z,-0.23
2023-02-26T02:53:00.447Z,-0.32
2023-02-26T02:58:07.571Z,-0.35
2023-02-26T03:03:20.493Z,-0.37
2023-02-26T03:08:29.482Z,-0.45
2023-02-26T03:13:33.092Z,-0.45
2023-02-26T03:18:54.936Z,-0.52
2023-02-26T03:24:10.182Z,-0.48
2023-02-26T03:29:21.008Z,-0.50
2023-02-26T03:34:31.680Z,-0.43
2023-02-26T03:39:40.000Z,-0.46
2023-02-26T03:44:53.150Z,-0.50
2023-02-26T03:50:04.150Z,-0.54
2023-02-26T03:55:16.197Z,-0.60
2023-02-26T04:00:38.140Z,-0.64
2023-02-26T04:05:48.841Z,-0.69
2023-02-26T04:10:55.797Z,-0.72
2023-02-26T04:15:59.615Z,-0.78
2023-02-26T04:21:06.324Z,-0.82
2023-02-26T04:26:09.600Z,-0.80
2023-02-26T04:31:15.733Z,-0.82
2023-02-26T04:36:20.564Z,-0.86
2023-02-26T04:41:23.873Z,-0.83
2023-02-26T04:46:27.420Z,-0.86
2023-02-26T04:51:32.155Z,-0.87
2023-02-26T04:56:35.623Z,-0.93
2023-02-26T05:01:40.177Z,-1.02
2023-02-26T05:06:45.996Z,-1.08
2023-02-26T05:11:52.926Z,-1.05
2023-02-26T05:16:55.983Z,-1.11
2023-02-26T05:22:04.906Z,-1.17
2023-02-26T05:27:08.274Z,-1.19
2023-02-26T05:32:23.877Z,-1.20
2023-02-26T05:37:28.360Z,-1.22
2023-02-26T05:42:33.344Z,-1.30
2023-02-26T05:47:37.684Z,-1.32
2023-02-26T05:52:42.127Z,-1.35
2023-02-26T05:57:46.695Z,-1.35
2023-02-26T06:02:49.802Z,-1.41
2023-02-26T06:07:54.396Z,-1.46
2023-02-26T06:12:57.482Z,-1.49
2023-02-26T06:18:00.558Z,-1.46
2023-02-26T06:23:07.751Z,-1.46
2023-02-26T06:28:11.002Z,-1.49
2023-02-26T06:33:14.114Z,-1.45
2023-02-26T06:38:18.702Z,-1.50
2023-02-26T06:43:22.134Z,-1.47
2023-02-26T06:48:25.234Z,-1.38
2023-02-26T06:53:29.931Z,-1.38
2023-02-26T06:58:33.087Z,-1.41
2023-02-26T07:03:36.324Z,-1.30
2023-02-26T07:08:41.398Z,-1.30
2023-02-26T07:13:44.505Z,-1.26
2023-02-26T07:18:47.611Z,-1.17
2023-02-26T07:23:52.041Z,-1.11
2023-02-26T07:28:55.136Z,-1.05
2023-02-26T07:33:58.365Z,-1.00
2023-02-26T07:39:05.272Z,-0.94
2023-02-26T07:44:08.424Z,-0.85
2023-02-26T07:49:11.742Z,-0.77
2023-02-26T07:54:16.944Z,-0.72
2023-02-26T07:59:20.157Z,-0.61
2023-02-26T08:04:23.511Z,-0.56
2023-02-26T08:09:29.296Z,-0.48
2023-02-26T08:14:32.591Z,-0.57
2023-02-26T08:19:36.187Z,-0.33
2023-02-26T08:24:40.776Z,-0.19
2023-02-26T08:29:46.311Z,-0.06
2023-02-26T08:34:49.612Z,0.03
2023-02-26T08:39:55.557Z,0.09
2023-02-26T08:44:58.565Z,0.21
2023-02-26T08:50:04.902Z,0.20
2023-02-26T08:55:10.561Z,0.39
2023-02-26T09:00:16.362Z,0.58
2023-02-26T09:05:19.889Z,0.77
2023-02-26T09:10:25.999Z,1.04
2023-02-26T09:15:29.347Z,1.31
2023-02-26T09:20:35.022Z,1.71
2023-02-26T09:25:39.880Z,2.06
2023-02-26T09:30:43.472Z,2.23
2023-02-26T09:35:49.053Z,2.48
2023-02-26T09:40:57.787Z,2.82
2023-02-26T09:46:05.312Z,2.99
2023-02-26T09:51:13.838Z,3.14
2023-02-26T09:56:22.614Z,3.26
2023-02-26T10:01:30.552Z,3.60
2023-02-26T10:06:36.919Z,3.91
2023-02-26T10:11:48.803Z,4.17
2023-02-26T10:16:57.789Z,4.20
2023-02-26T10:22:09.563Z,4.41
2023-02-26T10:27:17.430Z,4.45
2023-02-26T10:32:27.447Z,4.67
2023-02-26T10:37:45.105Z,4.96
2023-02-26T10:42:57.627Z,4.67
2023-02-26T10:48:14.138Z,4.71
2023-02-26T10:53:17.307Z,5.19
2023-02-26T10:58:24.285Z,5.08
2023-02-26T11:03:33.807Z,5.28
2023-02-26T11:08:42.244Z,5.05
2023-02-26T11:13:49.080Z,5.16
2023-02-26T11:18:56.254Z,5.47
2023-02-26T11:24:03.451Z,5.72
2023-02-26T11:29:07.991Z,5.90
2023-02-26T11:34:13.228Z,6.21
2023-02-26T11:39:19.440Z,6.26
2023-02-26T11:44:36.763Z,5.83
2023-02-26T11:49:44.480Z,5.75
2023-02-26T11:54:50.787Z,5.55
2023-02-26T11:59:57.247Z,5.65
2023-02-26T12:05:07.925Z,5.67
2023-02-26T12:10:16.786Z,5.67
2023-02-26T12:15:32.397Z,5.76
2023-02-26T12:20:44.226Z,5.88
2023-02-26T12:26:09.727Z,6.03
2023-02-26T12:31:36.584Z,6.27
2023-02-26T12:36:56.065Z,6.20
2023-02-26T12:42:16.208Z,6.32
2023-02-26T12:47:36.851Z,6.52
2023-02-26T12:53:14.446Z,6.53
2023-02-26T12:58:44.419Z,6.56
2023-02-26T13:04:13.675Z,6.58
2023-02-26T13:09:31.928Z,6.58
2023-02-26T13:14:46.680Z,6.65
2023-02-26T13:19:55.388Z,6.50
2023-02-26T13:25:03.824Z,6.80
2023-02-26T13:30:20.115Z,6.82
2023-02-26T13:35:28.948Z,6.91
2023-02-26T13:40:49.122Z,6.99
2023-02-26T13:46:01.981Z,6.78
2023-02-26T13:51:14.184Z,6.63
2023-02-26T13:56:21.744Z,6.52
2023-02-26T14:01:32.999Z,6.69
2023-02-26T14:06:43.693Z,6.65
2023-02-26T14:11:59.742Z,6.91
2023-02-26T14:17:36.145Z,6.88
2023-02-26T14:22:46.929Z,6.88
2023-02-26T14:27:52.399Z,7.05
2023-02-26T14:33:07.835Z,6.92
2023-02-26T14:38:19.977Z,6.89
2023-02-26T14:43:33.081Z,6.87
2023-02-26T14:48:37.996Z,6.94
2023-02-26T14:53:59.559Z,6.92
2023-02-26T14:59:21.028Z,6.90
2023-02-26T15:04:59.593Z,6.94
2023-02-26T15:10:23.577Z,6.83
2023-02-26T15:15:40.867Z,6.92
2023-02-26T15:20:51.918Z,6.95
2023-02-26T15:25:57.280Z,6.92
2023-02-26T15:31:02.246Z,6.89
2023-02-26T15:36:10.249Z,6.87
2023-02-26T15:41:15.714Z,6.85
2023-02-26T15:46:22.006Z,6.81
2023-02-26T15:51:26.118Z,6.92
2023-02-26T15:56:33.916Z,6.79
2023-02-26T16:01:37.923Z,6.74
2023-02-26T16:06:43.189Z,6.69
2023-02-26T16:11:49.220Z,6.59
2023-02-26T16:16:55.325Z,6.47
2023-02-26T16:22:00.286Z,6.26
2023-02-26T16:27:09.192Z,6.17
2023-02-26T16:32:16.777Z,6.08
2023-02-26T16:37:27.707Z,6.00
2023-02-26T16:42:44.746Z,5.86
2023-02-26T16:47:51.339Z,5.75
2023-02-26T16:53:01.446Z,5.43
2023-02-26T16:58:09.297Z,5.23
2023-02-26T17:03:16.536Z,5.02
2023-02-26T17:08:20.762Z,4.97
2023-02-26T17:13:29.315Z,4.73
2023-02-26T17:18:33.195Z,4.60
2023-02-26T17:23:39.067Z,4.46
2023-02-26T17:28:44.330Z,4.28
2023-02-26T17:33:47.787Z,4.15
2023-02-26T17:38:51.238Z,4.02
2023-02-26T17:43:55.581Z,3.89
2023-02-26T17:48:58.669Z,3.76
2023-02-26T17:54:01.795Z,3.62
2023-02-26T17:59:13.115Z,3.48
2023-02-26T18:04:16.797Z,3.46
2023-02-26T18:09:19.869Z,3.39
2023-02-26T18:14:24.279Z,3.32
2023-02-26T18:19:27.328Z,3.21
2023-02-26T18:24:32.390Z,3.15
2023-02-26T18:29:36.933Z,3.02
2023-02-26T18:34:40.030Z,2.95
2023-02-26T18:39:43.581Z,2.85
2023-02-26T18:44:48.680Z,2.86
2023-02-26T18:49:52.547Z,2.66
2023-02-26T18:54:55.669Z,2.68
2023-02-26T19:00:00.466Z,2.57
2023-02-26T19:05:06.460Z,2.35
2023-02-26T19:10:14.582Z,2.40
2023-02-26T19:15:19.469Z,2.28
2023-02-26T19:20:22.617Z,2.22
2023-02-26T19:25:27.160Z,2.12
2023-02-26T19:30:31.933Z,2.08
2023-02-26T19:35:35.517Z,2.06
2023-02-26T19:40:38.609Z,1.99
2023-02-26T19:45:43.259Z,1.89
2023-02-26T19:50:46.555Z,1.85
2023-02-26T19:55:52.886Z,1.62
2023-02-26T20:00:58.234Z,1.77
2023-02-26T20:06:09.908Z,1.70
2023-02-26T20:11:13.117Z,1.72
2023-02-26T20:16:17.688Z,1.65
2023-02-26T20:21:21.488Z,1.55
2023-02-26T20:26:24.824Z,1.41
2023-02-26T20:31:31.762Z,1.30
2023-02-26T20:36:35.262Z,1.23
2023-02-26T20:41:38.559Z,1.16
2023-02-26T20:46:43.123Z,1.05
2023-02-26T20:51:46.195Z,1.08
2023-02-26T20:56:49.651Z,1.04
2023-02-26T21:01:54.120Z,1.01
2023-02-26T21:07:12.567Z,0.96
2023-02-26T21:12:16.827Z,0.83
2023-02-26T21:17:22.823Z,0.79
2023-02-26T21:22:27.420Z,0.62
2023-02-26T21:27:32.871Z,0.61
2023-02-26T21:32:37.455Z,0.60
2023-02-26T21:37:40.747Z,0.55
2023-02-26T21:42:44.150Z,0.48
2023-02-26T21:47:48.547Z,0.35
2023-02-26T21:52:51.590Z,0.40
2023-02-26T21:57:54.665Z,0.35
2023-02-26T22:02:59.316Z,0.30
2023-02-26T22:08:04.529Z,0.31
2023-02-26T22:13:07.701Z,0.32
2023-02-26T22:18:12.134Z,0.35
2023-02-26T22:23:15.492Z,0.31
2023-02-26T22:28:18.554Z,0.46
2023-02-26T22:33:23.250Z,0.53
2023-02-26T22:38:26.424Z,0.59
2023-02-26T22:43:29.421Z,0.67
2023-02-26T22:48:33.875Z,0.73
2023-02-26T22:53:36.896Z,0.73
2023-02-26T22:58:42.307Z,0.83
2023-02-26T23:03:46.903Z,0.89
2023-02-26T23:08:50.145Z,0.97
2023-02-26T23:13:53.209Z,1.04
2023-02-26T23:18:57.593Z,1.04
2023-02-26T23:24:01.620Z,1.11
2023-02-26T23:29:10.639Z,1.08
2023-02-26T23:34:15.016Z,1.19
2023-02-26T23:39:18.418Z,1.26
2023-02-26T23:44:21.589Z,1.29
2023-02-26T23:49:26.271Z,1.30
2023-02-26T23:54:29.460Z,1.28
2023-02-26T23:59:32.768Z,1.27
